Time;durP1;ratioP1;P1;durP2;ratioP2;P2;SDS_P1;SDS_P2;PMS_P1;PMS_P2;Temp;Humidity;BMP_temperature;BMP_pressure;BME280_temperature;BME280_humidity;BME280_pressure;Samples;Min_cycle;Max_cycle;Signal;HPM_P1;HPM_P2
2023/11/13 00:02:18;;;;;;;;;;;;;;;;;;5106294;28;19928;-52
2023/11/13 00:04:45;;;;;;;;;;;;;;;;;;5113234;28;19908;-53
2023/11/13 00:07:13;;;;;;;;;;;;;;;;;;5113028;28;19912;-53
2023/11/13 00:09:38;;;;;;;;;;;;;;;;;;5108390;28;19915;-57
2023/11/13 00:12:03;;;;;;;;;;;;;;;;;;5103108;28;19920;-51
2023/11/13 00:14:29;;;;;;;;;;;;;;;;;;5114341;28;19947;-54
2023/11/13 00:16:54;;;;;;;;;;;;;;;;;;5095053;28;19913;-51
2023/11/13 00:19:19;;;;;;;;;;;;;;;;;;5105814;28;19971;-50
2023/11/13 00:21:45;;;;;;;;;;;;;;;;;;5104360;28;19999;-53
2023/11/13 00:24:12;;;;;;;;;;;;;;;;;;5111856;28;19912;-52
2023/11/13 00:26:37;;;;;;;;;;;;;;;;;;5111811;28;19922;-52
2023/11/13 00:29:03;;;;;;;;;;;;;;;;;;5115617;28;19912;-54
2023/11/13 00:31:28;;;;;;;;;;;;;;;;;;5116983;28;19916;-53
2023/11/13 00:33:54;;;;;;;;;;;;;;;;;;5132363;28;19919;-51
2023/11/13 00:36:19;;;;;;;;;;;;;;;;;;5104404;28;19919;-50
2023/11/13 00:38:45;;;;;;;;;;;;;;;;;;5082868;28;19952;-53
2023/11/13 00:41:10;;;;;;;;;;;;;;;;;;5089944;28;19950;-54
2023/11/13 00:43:36;;;;;;;;;;;;;;;;;;5114370;28;19916;-51
2023/11/13 00:46:02;;;;;;;;;;;;;;;;;;5116425;28;19912;-55
2023/11/13 00:48:27;;;;;;;;;;;;;;;;;;5107944;28;19938;-54
2023/11/13 00:50:53;;;;;;;;;;;;;;;;;;5090813;28;19915;-50
2023/11/13 00:53:19;;;;;;;;;;;;;;;;;;5130815;28;19913;-52
2023/11/13 00:55:44;;;;;;;;;;;;;;;;;;5115824;28;19912;-53
2023/11/13 00:58:10;;;;;;;;;;;;;;;;;;5126304;28;19912;-51
2023/11/13 01:00:36;;;;;;;;;;;;;;;;;;5111741;28;20003;-53
2023/11/13 01:03:01;;;;;;;;;;;;;;;;;;5130875;28;19912;-55
2023/11/13 01:05:27;;;;;;;;;;;;;;;;;;5104150;28;19919;-55
2023/11/13 01:07:53;;;;;;;;;;;;;;;;;;5112291;28;19912;-53
2023/11/13 01:10:19;;;;;;;;;;;;;;;;;;5115022;28;19944;-54
2023/11/13 01:12:44;;;;;;;;;;;;;;;;;;5114927;28;19919;-52
2023/11/13 01:15:11;;;;;;;;;;;;;;;;;;5132455;28;19934;-52
2023/11/13 01:17:36;;;;;;;;;;;;;;;;;;5126088;28;19913;-54
2023/11/13 01:20:02;;;;;;;;;;;;;;;;;;5106574;28;20003;-51
2023/11/13 01:22:27;;;;;;;;;;;;;;;;;;5098417;28;19987;-53
2023/11/13 01:24:53;;;;;;;;;;;;;;;;;;5100561;28;19920;-55
2023/11/13 01:27:19;;;;;;;;;;;;;;;;;;5096187;28;19971;-52
2023/11/13 01:29:44;;;;;;;;;;;;;;;;;;5103215;28;19941;-54
2023/11/13 01:32:10;;;;;;;;;;;;;;;;;;5102313;28;19912;-52
2023/11/13 01:34:36;;;;;;;;;;;;;;;;;;5132030;28;19922;-53
2023/11/13 01:37:02;;;;;;;;;;;;;;;;;;5114021;28;19947;-53
2023/11/13 01:39:27;;;;;;;;;;;;;;;;;;5078236;28;19951;-52
2023/11/13 01:41:52;;;;;;;;;;;;;;;;;;5095255;28;19916;-56
2023/11/13 01:44:18;;;;;;;;;;;;;;;;;;5095315;28;19912;-54
2023/11/13 01:46:44;;;;;;;;;;;;;;;;;;5108829;28;19935;-53
2023/11/13 01:49:09;;;;;;;;;;;;;;;;;;5105711;28;19912;-52
2023/11/13 01:51:35;;;;;;;;;;;;;;;;;;5111876;28;19912;-52
2023/11/13 01:54:00;;;;;;;;;;;;;;;;;;5115061;28;19916;-53
2023/11/13 01:56:25;;;;;;;;;;;;;;;;;;5096463;28;19971;-53
2023/11/13 01:58:51;;;;;;;;;;;;;;;;;;5131070;28;19912;-54
2023/11/13 02:01:17;;;;;;;;;;;;;;;;;;5116968;28;19926;-52
2023/11/13 02:03:43;;;;;;;;;;;;;;;;;;5114941;28;19988;-52
2023/11/13 02:06:08;;;;;;;;;;;;;;;;;;5083566;28;19913;-55
2023/11/13 02:08:33;;;;;;;;;;;;;;;;;;5096565;28;19977;-54
2023/11/13 02:10:59;;;;;;;;;;;;;;;;;;5087061;28;19923;-52
2023/11/13 02:13:25;;;;;;;;;;;;;;;;;;5120473;28;19912;-56
2023/11/13 02:15:50;;;;;;;;;;;;;;;;;;5125541;28;19923;-51
2023/11/13 02:18:16;;;;;;;;;;;;;;;;;;5077430;28;20435;-52
2023/11/13 02:20:41;;;;;;;;;;;;;;;;;;5086603;28;19952;-52
2023/11/13 02:23:07;;;;;;;;;;;;;;;;;;5131132;28;19990;-51
2023/11/13 02:25:32;;;;;;;;;;;;;;;;;;5095617;28;19975;-52
2023/11/13 02:28:00;;;;;;;;;;;;;;;;;;5114158;28;19920;-50
2023/11/13 02:30:26;;;;;;;;;;;;;;;;;;5089653;28;19935;-52
2023/11/13 02:32:51;;;;;;;;;;;;;;;;;;5114778;28;19916;-53
2023/11/13 02:35:16;;;;;;;;;;;;;;;;;;5096390;28;19979;-53
2023/11/13 02:37:42;;;;;;;;;;;;;;;;;;5097067;28;19923;-51
2023/11/13 02:40:09;;;;;;;;;;;;;;;;;;5100722;28;19933;-51
2023/11/13 02:42:34;;;;;;;;;;;;;;;;;;5114626;28;19971;-55
2023/11/13 02:45:00;;;;;;;;;;;;;;;;;;5114100;28;19941;-54
2023/11/13 02:47:26;;;;;;;;;;;;;;;;;;5130697;28;19919;-54
2023/11/13 02:49:51;;;;;;;;;;;;;;;;;;5101718;28;19912;-53
2023/11/13 02:52:17;;;;;;;;;;;;;;;;;;5086833;28;19915;-55
2023/11/13 02:54:42;;;;;;;;;;;;;;;;;;5113248;28;19934;-55
2023/11/13 02:57:08;;;;;;;;;;;;;;;;;;5130350;28;19919;-53
2023/11/13 02:59:33;;;;;;;;;;;;;;;;;;5105481;28;19912;-52
2023/11/13 03:01:58;;;;;;;;;;;;;;;;;;5106533;28;19916;-51
2023/11/13 03:04:23;;;;;;;;;;;;;;;;;;5126248;28;19919;-54
2023/11/13 03:06:49;;;;;;;;;;;;;;;;;;5103981;28;19916;-54
2023/11/13 03:09:14;;;;;;;;;;;;;;;;;;5113085;28;19958;-53
2023/11/13 03:11:40;;;;;;;;;;;;;;;;;;5091890;28;19912;-52
2023/11/13 03:14:06;;;;;;;;;;;;;;;;;;5113267;28;19922;-54
2023/11/13 03:16:31;;;;;;;;;;;;;;;;;;5129889;28;19923;-53
2023/11/13 03:18:56;;;;;;;;;;;;;;;;;;5080304;28;19916;-53
2023/11/13 03:21:23;;;;;;;;;;;;;;;;;;5094426;28;19966;-53
2023/11/13 03:23:48;;;;;;;;;;;;;;;;;;5112249;28;19923;-51
2023/11/13 03:26:14;;;;;;;;;;;;;;;;;;5105389;28;19948;-54
2023/11/13 03:28:39;;;;;;;;;;;;;;;;;;5108466;28;19923;-54
2023/11/13 03:31:05;;;;;;;;;;;;;;;;;;5114399;28;19931;-53
2023/11/13 03:33:30;;;;;;;;;;;;;;;;;;5118938;28;19912;-52
2023/11/13 03:35:56;;;;;;;;;;;;;;;;;;5117672;28;19912;-54
2023/11/13 03:38:21;;;;;;;;;;;;;;;;;;5133252;28;19940;-52
2023/11/13 03:40:47;;;;;;;;;;;;;;;;;;5104727;28;19921;-57
2023/11/13 03:43:13;;;;;;;;;;;;;;;;;;5112789;28;19908;-50
2023/11/13 03:45:39;;;;;;;;;;;;;;;;;;5108943;28;19952;-54
2023/11/13 03:48:04;;;;;;;;;;;;;;;;;;5112287;28;19912;-55
2023/11/13 03:50:30;;;;;;;;;;;;;;;;;;5126967;28;19916;-55
2023/11/13 03:52:55;;;;;;;;;;;;;;;;;;5081374;28;19917;-54
2023/11/13 03:55:21;;;;;;;;;;;;;;;;;;5111030;28;19916;-53
2023/11/13 03:57:46;;;;;;;;;;;;;;;;;;5111200;28;19920;-53
2023/11/13 04:00:12;;;;;;;;;;;;;;;;;;5114402;28;19979;-52
2023/11/13 04:02:40;;;;;;;;;;;;;;;;;;5112136;28;19916;-54
2023/11/13 04:05:06;;;;;;;;;;;;;;;;;;5105591;28;19922;-53
2023/11/13 04:07:31;;;;;;;;;;;;;;;;;;5115513;28;19920;-52
2023/11/13 04:09:58;;;;;;;;;;;;;;;;;;5108601;28;19927;-53
2023/11/13 04:12:23;;;;;;;;;;;;;;;;;;5080881;28;19935;-52
2023/11/13 04:14:49;;;;;;;;;;;;;;;;;;5117011;28;19912;-52
2023/11/13 04:17:15;;;;;;;;;;;;;;;;;;5114811;28;19979;-50
2023/11/13 04:19:40;;;;;;;;;;;;;;;;;;5113324;28;19916;-55
2023/11/13 04:22:06;;;;;;;;;;;;;;;;;;5089919;28;19924;-53
2023/11/13 04:24:31;;;;;;;;;;;;;;;;;;5097132;28;19920;-54
2023/11/13 04:26:57;;;;;;;;;;;;;;;;;;5099716;28;19917;-50
2023/11/13 04:29:23;;;;;;;;;;;;;;;;;;5099335;28;19948;-52
2023/11/13 04:31:48;;;;;;;;;;;;;;;;;;5109619;28;19912;-52
2023/11/13 04:34:14;;;;;;;;;;;;;;;;;;5097390;28;19924;-51
2023/11/13 04:36:40;;;;;;;;;;;;;;;;;;5110273;28;19912;-50
2023/11/13 04:39:09;;;;;;;;;;;;;;;;;;5097376;28;19909;-50
2023/11/13 04:41:35;;;;;;;;;;;;;;;;;;5097483;28;19917;-52
2023/11/13 04:44:00;;;;;;;;;;;;;;;;;;5094333;28;19940;-53
2023/11/13 04:46:26;;;;;;;;;;;;;;;;;;5105472;28;19995;-54
2023/11/13 04:48:51;;;;;;;;;;;;;;;;;;5096686;28;19919;-54
2023/11/13 04:51:17;;;;;;;;;;;;;;;;;;5097905;28;19943;-53
2023/11/13 04:53:42;;;;;;;;;;;;;;;;;;5096990;28;19912;-54
2023/11/13 04:56:08;;;;;;;;;;;;;;;;;;5103030;28;19938;-52
2023/11/13 04:58:33;;;;;;;;;;;;;;;;;;5097131;28;19940;-54
2023/11/13 05:00:59;;;;;;;;;;;;;;;;;;5096898;28;19916;-55
2023/11/13 05:03:24;;;;;;;;;;;;;;;;;;5097033;28;19912;-53
2023/11/13 05:05:50;;;;;;;;;;;;;;;;;;5099613;28;19912;-55
2023/11/13 05:08:15;;;;;;;;;;;;;;;;;;5096656;28;19923;-50
2023/11/13 05:10:41;;;;;;;;;;;;;;;;;;5079447;28;19912;-53
2023/11/13 05:13:07;;;;;;;;;;;;;;;;;;5096772;28;19931;-53
2023/11/13 05:15:33;;;;;;;;;;;;;;;;;;5097328;28;19912;-51
2023/11/13 05:17:58;;;;;;;;;;;;;;;;;;5108324;28;19940;-51
2023/11/13 05:20:24;;;;;;;;;;;;;;;;;;5105104;28;19971;-50
2023/11/13 05:22:50;;;;;;;;;;;;;;;;;;5104246;28;19992;-52
2023/11/13 05:25:16;;;;;;;;;;;;;;;;;;5097516;28;19920;-55
2023/11/13 05:27:41;;;;;;;;;;;;;;;;;;5108534;28;19912;-50
2023/11/13 05:30:07;;;;;;;;;;;;;;;;;;5096381;28;19917;-55
2023/11/13 05:32:32;;;;;;;;;;;;;;;;;;5095840;28;19913;-54
2023/11/13 05:34:58;;;;;;;;;;;;;;;;;;5095769;28;19986;-52
2023/11/13 05:37:24;;;;;;;;;;;;;;;;;;5102328;28;19923;-49
2023/11/13 05:39:50;;;;;;;;;;;;;;;;;;5109761;28;19916;-54
2023/11/13 05:42:17;;;;;;;;;;;;;;;;;;5095951;28;19978;-55
2023/11/13 05:44:42;;;;;;;;;;;;;;;;;;5096149;28;19908;-54
2023/11/13 05:47:08;;;;;;;;;;;;;;;;;;5095743;28;19923;-54
2023/11/13 05:49:33;;;;;;;;;;;;;;;;;;5095613;28;19912;-53
2023/11/13 05:51:58;;;;;;;;;;;;;;;;;;5095670;28;19935;-53
2023/11/13 05:54:24;;;;;;;;;;;;;;;;;;5095230;28;19920;-54
2023/11/13 05:56:50;;;;;;;;;;;;;;;;;;5094908;28;19985;-53
2023/11/13 05:59:15;;;;;;;;;;;;;;;;;;5095624;28;19912;-51
2023/11/13 06:01:41;;;;;;;;;;;;;;;;;;5077924;28;19946;-52
2023/11/13 06:04:07;;;;;;;;;;;;;;;;;;5095545;28;19923;-54
2023/11/13 06:06:32;;;;;;;;;;;;;;;;;;5099262;28;19923;-52
2023/11/13 06:08:57;;;;;;;;;;;;;;;;;;5115082;28;19916;-55
2023/11/13 06:11:23;;;;;;;;;;;;;;;;;;5106300;28;19917;-56
2023/11/13 06:13:48;;;;;;;;;;;;;;;;;;5095019;28;19913;-55
2023/11/13 06:16:14;;;;;;;;;;;;;;;;;;5096418;28;19919;-55
2023/11/13 06:18:41;;;;;;;;;;;;;;;;;;5084644;28;19940;-58
2023/11/13 06:21:07;;;;;;;;;;;;;;;;;;5082008;28;20002;-55
2023/11/13 06:23:32;;;;;;;;;;;;;;;;;;5095303;28;19920;-57
2023/11/13 06:25:58;;;;;;;;;;;;;;;;;;5101605;28;19912;-53
2023/11/13 06:28:23;;;;;;;;;;;;;;;;;;5097748;28;19912;-56
2023/11/13 06:30:49;;;;;;;;;;;;;;;;;;5095400;28;19920;-56
2023/11/13 06:33:15;;;;;;;;;;;;;;;;;;5098809;28;19912;-54
2023/11/13 06:35:40;;;;;;;;;;;;;;;;;;5114347;28;19920;-54
2023/11/13 06:38:08;;;;;;;;;;;;;;;;;;5115153;28;19922;-56
2023/11/13 06:40:34;;;;;;;;;;;;;;;;;;5101240;28;19963;-54
2023/11/13 06:43:00;;;;;;;;;;;;;;;;;;5101551;28;19916;-57
2023/11/13 06:45:26;;;;;;;;;;;;;;;;;;5114195;28;19934;-58
2023/11/13 06:47:51;;;;;;;;;;;;;;;;;;5100476;28;19913;-58
2023/11/13 06:50:17;;;;;;;;;;;;;;;;;;5101404;28;19916;-59
2023/11/13 06:52:43;;;;;;;;;;;;;;;;;;5108786;28;19912;-57
2023/11/13 06:55:16;;;;;;;;;;;;;;;;;;5101162;28;19912;-57
2023/11/13 06:57:41;;;;;;;;;;;;;;;;;;5091840;28;19971;-55
2023/11/13 07:00:08;;;;;;;;;;;;;;;;;;5108092;28;19938;-59
2023/11/13 07:02:35;;;;;;;;;;;;;;;;;;5084296;28;19991;-56
2023/11/13 07:05:01;;;;;;;;;;;;;;;;;;5096383;28;19937;-56
2023/11/13 07:07:26;;;;;;;;;;;;;;;;;;5090869;28;19936;-56
2023/11/13 07:09:52;;;;;;;;;;;;;;;;;;5113080;28;20006;-58
2023/11/13 07:12:17;;;;;;;;;;;;;;;;;;5091497;28;19917;-55
2023/11/13 07:14:43;;;;;;;;;;;;;;;;;;5105100;28;19912;-55
2023/11/13 07:17:08;;;;;;;;;;;;;;;;;;5109029;28;19912;-58
2023/11/13 07:19:34;;;;;;;;;;;;;;;;;;5105501;28;19939;-56
2023/11/13 07:22:01;;;;;;;;;;;;;;;;;;5109528;28;19922;-56
2023/11/13 07:24:27;;;;;;;;;;;;;;;;;;5105491;28;19943;-58
2023/11/13 07:26:53;;;;;;;;;;;;;;;;;;5113365;28;19955;-58
2023/11/13 07:29:18;;;;;;;;;;;;;;;;;;5117452;28;19916;-56
2023/11/13 07:31:44;;;;;;;;;;;;;;;;;;5094728;28;19920;-60
2023/11/13 07:34:10;;;;;;;;;;;;;;;;;;5105355;28;19919;-59
2023/11/13 07:36:36;;;;;;;;;;;;;;;;;;5091983;28;19913;-53
2023/11/13 07:39:02;;;;;;;;;;;;;;;;;;5118214;28;19912;-59
2023/11/13 07:41:27;;;;;;;;;;;;;;;;;;5102066;28;19920;-60
2023/11/13 07:43:54;;;;;;;;;;;;;;;;;;5099897;28;19913;-60
2023/11/13 07:46:19;;;;;;;;;;;;;;;;;;5100722;28;19943;-57
2023/11/13 07:48:46;;;;;;;;;;;;;;;;;;5107492;28;19919;-55
2023/11/13 07:51:12;;;;;;;;;;;;;;;;;;5101864;28;19912;-55
2023/11/13 07:53:38;;;;;;;;;;;;;;;;;;5101153;28;19912;-58
2023/11/13 07:56:04;;;;;;;;;;;;;;;;;;5094718;28;19908;-57
2023/11/13 07:58:29;;;;;;;;;;;;;;;;;;5106919;28;19931;-55
2023/11/13 08:00:55;;;;;;;;;;;;;;;;;;5102838;28;19992;-53
2023/11/13 08:03:20;;;;;;;;;;;;;;;;;;5104315;28;19923;-58
2023/11/13 08:05:46;;;;;;;;;;;;;;;;;;5094160;28;19928;-58
2023/11/13 08:08:13;;;;;;;;;;;;;;;;;;5106664;28;19916;-59
2023/11/13 08:10:39;;;;;;;;;;;;;;;;;;5102182;28;19921;-58
2023/11/13 08:13:05;;;;;;;;;;;;;;;;;;5108489;28;19934;-58
2023/11/13 08:15:30;;;;;;;;;;;;;;;;;;5105797;28;19913;-58
2023/11/13 08:17:56;;;;;;;;;;;;;;;;;;5110863;28;19919;-59
2023/11/13 08:20:26;;;;;;;;;;;;;;;;;;5113168;28;19943;-58
2023/11/13 08:22:51;;;;;;;;;;;;;;;;;;5106263;28;19923;-61
2023/11/13 08:25:17;;;;;;;;;;;;;;;;;;5108402;28;19920;-59
2023/11/13 08:27:42;;;;;;;;;;;;;;;;;;5104774;28;19927;-58
2023/11/13 08:30:08;;;;;;;;;;;;;;;;;;5099899;28;19912;-60
2023/11/13 08:32:34;;;;;;;;;;;;;;;;;;5085027;28;19919;-56
2023/11/13 08:35:00;;;;;;;;;;;;;;;;;;5098407;28;19912;-57
2023/11/13 08:37:25;;;;;;;;;;;;;;;;;;5080277;28;19924;-57
2023/11/13 08:39:51;;;;;;;;;;;;;;;;;;5097405;28;19912;-57
2023/11/13 08:42:17;;;;;;;;;;;;;;;;;;5091005;28;19983;-58
2023/11/13 08:44:42;;;;;;;;;;;;;;;;;;5105843;28;19912;-57
2023/11/13 08:47:09;;;;;;;;;;;;;;;;;;5098019;28;19947;-57
2023/11/13 08:49:40;;;;;;;;;;;;;;;;;;5096143;28;19912;-59
2023/11/13 08:52:08;;;;;;;;;;;;;;;;;;5093625;28;19917;-58
2023/11/13 08:54:33;;;;;;;;;;;;;;;;;;5099500;28;19919;-59
2023/11/13 08:56:59;;;;;;;;;;;;;;;;;;5095001;28;19976;-56
2023/11/13 08:59:24;;;;;;;;;;;;;;;;;;5107613;28;19977;-56
2023/11/13 09:01:50;;;;;;;;;;;;;;;;;;5096819;28;19927;-58
2023/11/13 09:04:15;;;;;;;;;;;;;;;;;;5103428;28;19913;-56
2023/11/13 09:06:45;;;;;;;;;;;;;;;;;;5098996;28;19912;-57
2023/11/13 09:09:12;;;;;;;;;;;;;;;;;;5088043;28;19983;-58
2023/11/13 09:11:40;;;;;;;;;;;;;;;;;;5103157;28;19916;-56
2023/11/13 09:14:09;;;;;;;;;;;;;;;;;;5098205;28;19955;-57
2023/11/13 09:16:35;;;;;;;;;;;;;;;;;;5104502;28;19923;-55
2023/11/13 09:19:00;;;;;;;;;;;;;;;;;;5104613;28;19916;-58
2023/11/13 09:21:26;;;;;;;;;;;;;;;;;;5111624;28;19950;-59
2023/11/13 09:23:51;;;;;;;;;;;;;;;;;;5101620;28;19912;-56
2023/11/13 09:26:17;;;;;;;;;;;;;;;;;;5096077;28;19991;-57
2023/11/13 09:28:42;;;;;;;;;;;;;;;;;;5097527;28;19951;-58
2023/11/13 09:31:10;;;;;;;;;;;;;;;;;;5086731;28;19924;-56
2023/11/13 09:33:36;;;;;;;;;;;;;;;;;;5093968;28;19920;-58
2023/11/13 09:36:05;;;;;;;;;;;;;;;;;;5095821;28;19913;-56
2023/11/13 09:38:31;;;;;;;;;;;;;;;;;;5101833;28;19928;-55
2023/11/13 09:41:01;;;;;;;;;;;;;;;;;;5081941;28;19924;-59
2023/11/13 09:43:29;;;;;;;;;;;;;;;;;;5095617;28;19920;-53
2023/11/13 09:45:55;;;;;;;;;;;;;;;;;;5087521;28;19909;-57
2023/11/13 09:48:28;;;;;;;;;;;;;;;;;;5098776;28;19930;-58
2023/11/13 09:50:53;;;;;;;;;;;;;;;;;;5090003;28;19919;-55
2023/11/13 09:53:20;;;;;;;;;;;;;;;;;;5097405;28;19912;-57
2023/11/13 09:55:45;;;;;;;;;;;;;;;;;;5094764;28;19912;-54
2023/11/13 09:58:12;;;;;;;;;;;;;;;;;;5085367;28;19943;-56
2023/11/13 10:00:40;;;;;;;;;;;;;;;;;;5097258;28;19964;-58
2023/11/13 10:03:05;;;;;;;;;;;;;;;;;;5097132;28;19912;-57
2023/11/13 10:05:31;;;;;;;;;;;;;;;;;;5097917;28;19924;-58
2023/11/13 10:07:57;;;;;;;;;;;;;;;;;;5097732;28;20147;-57
2023/11/13 10:10:22;;;;;;;;;;;;;;;;;;5093827;28;19924;-57
2023/11/13 10:12:47;;;;;;;;;;;;;;;;;;5086750;28;19919;-55
2023/11/13 10:15:13;;;;;;;;;;;;;;;;;;5093227;28;19913;-55
2023/11/13 10:17:38;;;;;;;;;;;;;;;;;;5086616;28;19897;-53
2023/11/13 10:20:04;;;;;;;;;;;;;;;;;;5105688;28;19913;-54
2023/11/13 10:22:29;;;;;;;;;;;;;;;;;;5082258;28;19969;-53
2023/11/13 10:24:58;;;;;;;;;;;;;;;;;;5105708;28;19965;-56
2023/11/13 10:27:23;;;;;;;;;;;;;;;;;;5086979;28;19942;-56
2023/11/13 10:29:49;;;;;;;;;;;;;;;;;;5092867;28;19912;-56
2023/11/13 10:32:16;;;;;;;;;;;;;;;;;;5095238;28;19999;-57
2023/11/13 10:34:43;;;;;;;;;;;;;;;;;;5094417;28;19912;-56
2023/11/13 10:37:08;;;;;;;;;;;;;;;;;;5099403;28;19980;-58
2023/11/13 10:39:36;;;;;;;;;;;;;;;;;;5099826;28;19933;-58
2023/11/13 10:42:02;;;;;;;;;;;;;;;;;;5099540;28;19988;-58
2023/11/13 10:44:29;;;;;;;;;;;;;;;;;;5099566;28;19912;-58
2023/11/13 10:46:55;;;;;;;;;;;;;;;;;;5099798;28;19913;-57
2023/11/13 10:49:20;;;;;;;;;;;;;;;;;;5097214;28;19916;-60
2023/11/13 10:51:51;;;;;;;;;;;;;;;;;;5097473;28;19936;-60
2023/11/13 10:54:18;;;;;;;;;;;;;;;;;;5096838;28;19935;-56
2023/11/13 10:56:44;;;;;;;;;;;;;;;;;;5107513;28;19923;-59
2023/11/13 10:59:10;;;;;;;;;;;;;;;;;;5099683;28;19912;-59
2023/11/13 11:01:36;;;;;;;;;;;;;;;;;;5094791;28;19976;-60
2023/11/13 11:04:01;;;;;;;;;;;;;;;;;;5096202;28;19913;-59
2023/11/13 11:06:32;;;;;;;;;;;;;;;;;;5103858;28;19938;-55
2023/11/13 11:08:57;;;;;;;;;;;;;;;;;;5108065;28;19956;-59
2023/11/13 11:11:24;;;;;;;;;;;;;;;;;;5100024;28;19936;-54
2023/11/13 11:13:50;;;;;;;;;;;;;;;;;;5094512;28;19912;-51
2023/11/13 11:16:16;;;;;;;;;;;;;;;;;;5094061;28;19913;-58
2023/11/13 11:18:41;;;;;;;;;;;;;;;;;;5077215;28;19984;-57
2023/11/13 11:21:06;;;;;;;;;;;;;;;;;;5102250;28;19927;-58
2023/11/13 11:23:32;;;;;;;;;;;;;;;;;;5100433;28;19938;-55
2023/11/13 11:26:01;;;;;;;;;;;;;;;;;;5108020;28;19951;-58
2023/11/13 11:28:27;;;;;;;;;;;;;;;;;;5093968;28;19913;-57
2023/11/13 11:30:53;;;;;;;;;;;;;;;;;;5106181;28;19917;-55
2023/11/13 11:33:18;;;;;;;;;;;;;;;;;;5098695;28;19916;-58
2023/11/13 11:35:45;;;;;;;;;;;;;;;;;;5079148;28;19939;-57
2023/11/13 11:38:10;;;;;;;;;;;;;;;;;;5100135;28;19916;-59
2023/11/13 11:40:35;;;;;;;;;;;;;;;;;;5101725;28;19954;-59
2023/11/13 11:43:02;;;;;;;;;;;;;;;;;;5088736;28;19920;-57
2023/11/13 11:45:27;;;;;;;;;;;;;;;;;;5087377;28;20073;-58
2023/11/13 11:47:53;;;;;;;;;;;;;;;;;;5096484;28;19913;-57
2023/11/13 11:50:19;;;;;;;;;;;;;;;;;;5109587;28;19994;-58
2023/11/13 11:52:51;;;;;;;;;;;;;;;;;;5093877;28;19917;-59
2023/11/13 11:55:19;;;;;;;;;;;;;;;;;;5096450;28;19912;-56
2023/11/13 11:57:44;;;;;;;;;;;;;;;;;;5101595;28;19940;-59
2023/11/13 12:00:09;;;;;;;;;;;;;;;;;;5113527;28;19919;-58
2023/11/13 12:02:37;;;;;;;;;;;;;;;;;;5107292;28;19972;-59
2023/11/13 12:05:03;;;;;;;;;;;;;;;;;;5099669;28;19946;-58
2023/11/13 12:07:28;;;;;;;;;;;;;;;;;;5104572;28;19955;-60
2023/11/13 12:09:54;;;;;;;;;;;;;;;;;;5112964;28;19916;-59
2023/11/13 12:12:19;;;;;;;;;;;;;;;;;;5112885;28;19919;-59
2023/11/13 12:14:45;;;;;;;;;;;;;;;;;;5112997;28;19919;-58
2023/11/13 12:17:10;;;;;;;;;;;;;;;;;;5106882;28;19913;-58
2023/11/13 12:19:36;;;;;;;;;;;;;;;;;;5089735;28;19913;-56
2023/11/13 12:22:03;;;;;;;;;;;;;;;;;;5108182;28;19987;-59
2023/11/13 12:24:28;;;;;;;;;;;;;;;;;;5101082;28;19920;-60
2023/11/13 12:26:56;;;;;;;;;;;;;;;;;;5086039;28;19913;-58
2023/11/13 12:29:22;;;;;;;;;;;;;;;;;;5088625;28;19916;-60
2023/11/13 12:31:48;;;;;;;;;;;;;;;;;;5101234;28;19935;-59
2023/11/13 12:34:16;;;;;;;;;;;;;;;;;;5100016;28;19913;-60
2023/11/13 12:36:42;;;;;;;;;;;;;;;;;;5083928;28;19913;-57
2023/11/13 12:39:13;;;;;;;;;;;;;;;;;;5099497;28;19909;-56
2023/11/13 12:41:38;;;;;;;;;;;;;;;;;;5107270;28;19963;-59
2023/11/13 12:44:05;;;;;;;;;;;;;;;;;;5098973;28;19934;-56
2023/11/13 12:46:30;;;;;;;;;;;;;;;;;;5090892;28;19963;-58
2023/11/13 12:48:55;;;;;;;;;;;;;;;;;;5105905;28;19916;-59
2023/11/13 12:51:21;;;;;;;;;;;;;;;;;;5110203;28;19928;-61
2023/11/13 12:53:47;;;;;;;;;;;;;;;;;;5114144;28;19950;-59
2023/11/13 12:56:13;;;;;;;;;;;;;;;;;;5099352;28;19924;-59
2023/11/13 12:58:39;;;;;;;;;;;;;;;;;;5106406;28;19911;-59
2023/11/13 13:01:05;;;;;;;;;;;;;;;;;;5100686;28;19924;-59
2023/11/13 13:03:30;;;;;;;;;;;;;;;;;;5114510;28;19916;-59
2023/11/13 13:05:55;;;;;;;;;;;;;;;;;;5106496;28;19912;-58
2023/11/13 13:08:23;;;;;;;;;;;;;;;;;;5114213;28;19920;-60
2023/11/13 13:10:51;;;;;;;;;;;;;;;;;;5097437;28;19913;-58
2023/11/13 13:13:17;;;;;;;;;;;;;;;;;;5101940;28;19984;-60
2023/11/13 13:15:45;;;;;;;;;;;;;;;;;;5098692;28;19913;-59
2023/11/13 13:18:12;;;;;;;;;;;;;;;;;;5098988;28;19962;-57
2023/11/13 13:20:37;;;;;;;;;;;;;;;;;;5111310;28;19916;-59
2023/11/13 13:23:03;;;;;;;;;;;;;;;;;;5107855;28;19923;-58
2023/11/13 13:25:30;;;;;;;;;;;;;;;;;;5099391;28;19927;-59
2023/11/13 13:27:55;;;;;;;;;;;;;;;;;;5097355;28;19912;-60
2023/11/13 13:30:21;;;;;;;;;;;;;;;;;;5093396;28;19938;-58
2023/11/13 13:32:47;;;;;;;;;;;;;;;;;;5097484;28;19912;-59
2023/11/13 13:35:12;;;;;;;;;;;;;;;;;;5099421;28;19976;-60
2023/11/13 13:37:38;;;;;;;;;;;;;;;;;;5076807;28;19913;-60
2023/11/13 13:40:08;;;;;;;;;;;;;;;;;;5084952;28;19920;-60
2023/11/13 13:42:33;;;;;;;;;;;;;;;;;;5108700;28;20378;-57
2023/11/13 13:44:59;;;;;;;;;;;;;;;;;;5086170;28;19912;-59
2023/11/13 13:47:24;;;;;;;;;;;;;;;;;;5092070;28;20015;-59
2023/11/13 13:49:50;;;;;;;;;;;;;;;;;;5086426;28;19916;-60
2023/11/13 13:52:15;;;;;;;;;;;;;;;;;;5070489;28;19912;-58
2023/11/13 13:54:41;;;;;;;;;;;;;;;;;;5099533;28;20413;-61
2023/11/13 13:57:07;;;;;;;;;;;;;;;;;;5097915;28;19912;-61
2023/11/13 13:59:33;;;;;;;;;;;;;;;;;;5099940;28;19949;-59
2023/11/13 14:01:59;;;;;;;;;;;;;;;;;;5097475;28;19916;-60
2023/11/13 14:04:24;;;;;;;;;;;;;;;;;;5097516;28;19955;-58
2023/11/13 14:06:51;;;;;;;;;;;;;;;;;;5097781;28;19912;-57
2023/11/13 14:09:17;;;;;;;;;;;;;;;;;;5100112;28;19916;-57
2023/11/13 14:11:42;;;;;;;;;;;;;;;;;;5100523;28;19918;-56
2023/11/13 14:14:10;;;;;;;;;;;;;;;;;;5103237;28;19987;-56
2023/11/13 14:16:36;;;;;;;;;;;;;;;;;;5084917;28;19908;-54
2023/11/13 14:19:02;;;;;;;;;;;;;;;;;;5097253;28;19928;-55
2023/11/13 14:21:28;;;;;;;;;;;;;;;;;;5114140;28;19928;-56
2023/11/13 14:23:57;;;;;;;;;;;;;;;;;;5096181;28;19912;-53
2023/11/13 14:26:24;;;;;;;;;;;;;;;;;;5109936;28;19912;-54
2023/11/13 14:28:50;;;;;;;;;;;;;;;;;;5113517;28;19912;-56
2023/11/13 14:31:16;;;;;;;;;;;;;;;;;;5114233;28;19912;-54
2023/11/13 14:33:42;;;;;;;;;;;;;;;;;;5109228;28;19913;-56
2023/11/13 14:36:07;;;;;;;;;;;;;;;;;;5087244;28;19921;-54
2023/11/13 14:38:33;;;;;;;;;;;;;;;;;;5096436;28;19920;-55
2023/11/13 14:40:58;;;;;;;;;;;;;;;;;;5102572;28;20314;-54
2023/11/13 14:43:23;;;;;;;;;;;;;;;;;;5106275;28;19912;-56
2023/11/13 14:45:53;;;;;;;;;;;;;;;;;;5109056;28;19912;-55
2023/11/13 14:48:22;;;;;;;;;;;;;;;;;;5093545;28;19912;-53
2023/11/13 14:50:47;;;;;;;;;;;;;;;;;;5089412;28;19921;-51
2023/11/13 14:53:14;;;;;;;;;;;;;;;;;;5098401;28;19912;-55
2023/11/13 14:55:42;;;;;;;;;;;;;;;;;;5087502;28;19912;-56
2023/11/13 14:58:07;;;;;;;;;;;;;;;;;;5094628;28;19908;-54
2023/11/13 15:00:33;;;;;;;;;;;;;;;;;;5104807;28;19916;-55
2023/11/13 15:02:58;;;;;;;;;;;;;;;;;;5110082;28;19927;-56
2023/11/13 15:05:24;;;;;;;;;;;;;;;;;;5097826;28;19923;-51
2023/11/13 15:07:49;;;;;;;;;;;;;;;;;;5082275;28;19946;-55
2023/11/13 15:10:15;;;;;;;;;;;;;;;;;;5111962;28;19912;-55
2023/11/13 15:12:41;;;;;;;;;;;;;;;;;;5111155;28;19916;-55
2023/11/13 15:15:08;;;;;;;;;;;;;;;;;;5111771;28;19912;-57
2023/11/13 15:17:34;;;;;;;;;;;;;;;;;;5105515;28;19941;-56
2023/11/13 15:20:00;;;;;;;;;;;;;;;;;;5093552;28;19913;-53
2023/11/13 15:22:25;;;;;;;;;;;;;;;;;;5093858;28;20000;-50
2023/11/13 15:24:51;;;;;;;;;;;;;;;;;;5075958;28;19920;-53
2023/11/13 15:27:18;;;;;;;;;;;;;;;;;;5097309;28;19912;-54
2023/11/13 15:29:43;;;;;;;;;;;;;;;;;;5093112;28;19913;-54
2023/11/13 15:32:10;;;;;;;;;;;;;;;;;;5095736;28;19980;-54
2023/11/13 15:34:35;;;;;;;;;;;;;;;;;;5108583;28;19991;-51
2023/11/13 15:37:00;;;;;;;;;;;;;;;;;;5086907;28;19921;-53
2023/11/13 15:39:25;;;;;;;;;;;;;;;;;;5089244;28;19941;-53
2023/11/13 15:41:51;;;;;;;;;;;;;;;;;;5085823;28;19984;-54
2023/11/13 15:44:17;;;;;;;;;;;;;;;;;;5092871;28;19920;-55
2023/11/13 15:46:42;;;;;;;;;;;;;;;;;;5097198;28;19912;-55
2023/11/13 15:49:09;;;;;;;;;;;;;;;;;;5098977;28;19958;-53
2023/11/13 15:51:35;;;;;;;;;;;;;;;;;;5103388;28;19912;-52
2023/11/13 15:54:01;;;;;;;;;;;;;;;;;;5086811;28;19988;-55
2023/11/13 15:56:26;;;;;;;;;;;;;;;;;;5106303;28;19912;-53
2023/11/13 15:58:53;;;;;;;;;;;;;;;;;;5108860;28;19939;-54
2023/11/13 16:01:19;;;;;;;;;;;;;;;;;;5113313;28;20039;-50
2023/11/13 16:03:45;;;;;;;;;;;;;;;;;;5103409;28;19927;-55
2023/11/13 16:06:14;;;;;;;;;;;;;;;;;;5108533;28;19947;-53
2023/11/13 16:08:39;;;;;;;;;;;;;;;;;;5104204;28;19948;-54
2023/11/13 16:11:05;;;;;;;;;;;;;;;;;;5099737;28;19942;-52
2023/11/13 16:13:30;;;;;;;;;;;;;;;;;;5107009;28;19950;-54
2023/11/13 16:15:57;;;;;;;;;;;;;;;;;;5106649;28;19920;-52
2023/11/13 16:18:24;;;;;;;;;;;;;;;;;;5098350;28;19946;-55
2023/11/13 16:20:50;;;;;;;;;;;;;;;;;;5114631;28;19983;-53
2023/11/13 16:23:15;;;;;;;;;;;;;;;;;;5116679;28;19912;-55
2023/11/13 16:25:42;;;;;;;;;;;;;;;;;;5112252;28;19920;-55
2023/11/13 16:28:07;;;;;;;;;;;;;;;;;;5097917;28;19918;-55
2023/11/13 16:30:33;;;;;;;;;;;;;;;;;;5101767;28;19912;-52
2023/11/13 16:32:59;;;;;;;;;;;;;;;;;;5116302;28;19912;-54
2023/11/13 16:35:25;;;;;;;;;;;;;;;;;;5115716;28;19999;-54
2023/11/13 16:37:51;;;;;;;;;;;;;;;;;;5081505;28;19916;-54